Cosco Asia — 3ELQ8 — position and weather

sailwx.info

Track history (hours):
 
Tides and Currents Weather Stations Pressure Air Temp Water Temp Dewpoint Dewpoint Depression Visibility Wind Speed Wind Dir Waves Ship Positions

Cosco Asia

Last reported at 2017-Nov-23 01:24 UTC. Time now 2017-Nov-23 01:40 UTC.
Position N 31°12' E 122°34'.

Length 349 m; draft 10.9 m.

Type: Ship (hazmat cat A). MMSI: 356581000.

Date/timePositionNaut miles runAvg speedWind from/ knotsBaromVisibWave heightAir tempDewpointWater temp
2017-Nov-23 01:24N 31°12' E 122°34'3 6.4
2017-Nov-23 00:59N 31°10' E 122°33'3 6.7
2017-Nov-23 00:30N 31°08' E 122°29'510.8
2017-Nov-23 00:00N 31°06' E 122°24'5 8.7
2017-Nov-22 23:29N 31°06' E 122°18'4 8.4
2017-Nov-22 23:00N 31°08' E 122°14'611.1
2017-Nov-22 22:30N 31°12' E 122°09'510.7
2017-Nov-22 22:00N 31°14' E 122°04'611.0
2017-Nov-22 21:30N 31°15' E 121°57'612.1
2017-Nov-22 21:00N 31°17' E 121°50'612.3
2017-Nov-22 20:30N 31°19' E 121°44'510.7
2017-Nov-22 20:00N 31°22' E 121°38'3 6.4
2017-Nov-22 19:30N 31°23' E 121°35'  
Track history (hours):
 
Tides and Currents Weather Stations Pressure Air Temp Water Temp Dewpoint Dewpoint Depression Visibility Wind Speed Wind Dir Waves Ship Positions

Cosco Asia

Last reported at 2017-Nov-23 01:24 UTC. Time now 2017-Nov-23 01:40 UTC.
Position N 31°12' E 122°34'.

Length 349 m; draft 10.9 m.

Type: Ship (hazmat cat A). MMSI: 356581000.

Date/timePositionNaut miles runAvg speedWind from/ knotsBaromVisibWave heightAir tempDewpointWater temp
2017-Nov-23 01:24N 31°12' E 122°34'3 6.4
2017-Nov-23 00:59N 31°10' E 122°33'3 6.7
2017-Nov-23 00:30N 31°08' E 122°29'510.8
2017-Nov-23 00:00N 31°06' E 122°24'5 8.7
2017-Nov-22 23:29N 31°06' E 122°18'4 8.4
2017-Nov-22 23:00N 31°08' E 122°14'611.1
2017-Nov-22 22:30N 31°12' E 122°09'510.7
2017-Nov-22 22:00N 31°14' E 122°04'611.0
2017-Nov-22 21:30N 31°15' E 121°57'612.1
2017-Nov-22 21:00N 31°17' E 121°50'612.3
2017-Nov-22 20:30N 31°19' E 121°44'510.7
2017-Nov-22 20:00N 31°22' E 121°38'3 6.4
2017-Nov-22 19:30N 31°23' E 121°35'  

Dump ship's entire track history